Weather reports worldwide

Advertisment
Zinnwald-Georgenfeld, Germany (10582): temperature & dewpoint: 12.01.2018 06:00:00 - 18.01.2018 06:00:00 (CET)Zinnwald-Georgenfeld, Germany (10582): temperature 5cm & temperature -5cm: 12.01.2018 06:00:00 - 18.01.2018 06:00:00 (CET)Zinnwald-Georgenfeld, Germany (10582): temperature -20cm & temperature -100cm: 12.01.2018 06:00:00 - 18.01.2018 06:00:00 (CET)Zinnwald-Georgenfeld, Germany (10582): wind speed & gusts: 12.01.2018 06:00:00 - 18.01.2018 06:00:00 (CET)Zinnwald-Georgenfeld, Germany (10582): wind direction: 12.01.2018 06:00:00 - 18.01.2018 06:00:00 (CET)Zinnwald-Georgenfeld, Germany (10582): visibility: 12.01.2018 06:00:00 - 18.01.2018 06:00:00 (CET)Zinnwald-Georgenfeld, Germany (10582): sunshine duration: 12.01.2018 06:00:00 - 18.01.2018 06:00:00 (CET)Zinnwald-Georgenfeld, Germany (10582): precipitation: 12.01.2018 06:00:00 - 18.01.2018 06:00:00 (CET)
Date & Time tt [°C] td [°C] tt 5cm [°C] tt -5cm [°C] tt -20cm [°C] tt -100cm [°C] ff [km/h] ff [kn] fx [km/h] fx [kn] dd vv [km] sd [min] rr [mm]
18.01.2018 06:00:00 -3,7 -4,1 -0,3 0,0 0,2 2,6 26 14 49 26 W 27 0 0,0
18.01.2018 05:00:00 -3,7 -4,1 -0,3 0,0 0,2 2,6 25 13 49 26 W 29 0 0,0
18.01.2018 04:00:00 -3,4 -3,7 -0,4 0,0 0,2 2,6 26 14 48 26 W 18 0 0,0
18.01.2018 03:00:00 -3,3 -3,6 -0,4 0,0 0,2 2,6 26 14 52 28 W 14 0 0,4
18.01.2018 02:00:00 -3,3 -3,5 -0,4 0,0 0,2 2,6 19 10 45 25 W 1,2 0 1,0
18.01.2018 01:00:00 -3,4 -3,6 -0,4 0,0 0,2 2,6 24 13 61 33 WNW 1,9 0 0,1
18.01.2018 00:00:00 -3,6 -3,9 -0,4 0,0 0,2 2,6 29 15 58 32 WNW 25 0 0,6
17.01.2018 23:00:00 -3,3 -3,5 -0,4 0,0 0,2 2,6 28 15 58 31 WNW 0,7 0 1,2
17.01.2018 22:00:00 -3,4 -3,6 -0,5 0,0 0,2 2,6 26 14 66 36 NW 2,7 0 0,9
17.01.2018 21:00:00 -3,5 -3,8 -0,5 0,0 0,2 2,6 28 15 77 41 WNW 1,4 0 1,1
17.01.2018 20:00:00 -3,9 -4,2 -0,5 0,0 0,2 2,6 21 11 35 19 W 0,5 0 0,7
17.01.2018 19:00:00 -4,1 -4,5 -0,4 0,0 0,2 2,6 26 14 48 26 W 3,7 0 0,0
17.01.2018 18:00:00 -4,1 -4,5 -0,4 0,0 0,2 2,6 26 14 53 29 W 31 0 0,0
17.01.2018 17:00:00 -4,2 -4,6 -0,3 0,0 0,2 2,6 30 16 69 37 W 25 0 0,3
17.01.2018 16:00:00 -3,9 -4,2 -0,3 0,0 0,2 2,6 28 15 68 37 WNW 15 0 0,1
17.01.2018 15:00:00 -3,7 -4,0 -0,3 -0,1 0,2 2,6 34 18 59 32 WNW 4,4 0 0,0
17.01.2018 14:00:00 -3,5 -3,8 -0,3 -0,1 0,2 2,6 32 18 65 35 WNW 10 4 0,0
17.01.2018 13:00:00 -3,3 -3,6 -0,3 -0,1 0,2 2,5 35 19 63 34 WNW 13 8 0,0
17.01.2018 12:00:00 -3,2 -3,4 -0,5 -0,1 0,2 2,6 29 16 57 31 WNW 19 1 0,0
17.01.2018 11:00:00 -3,1 -3,3 -0,6 -0,1 0,2 2,6 29 16 56 31 W 18 0 0,0
17.01.2018 10:00:00 -3,1 -3,3 -0,6 -0,1 0,2 2,6 29 16 58 31 WSW 13 0 0,2
17.01.2018 09:00:00 -3,5 -3,7 -0,7 -0,1 0,2 2,6 16 9 30 16 WSW 4,6 0 1,7
17.01.2018 08:00:00 -4,0 -4,3 -0,7 -0,1 0,2 2,6 19 11 27 14 SSW 5 0 0,0
17.01.2018 07:00:00 -4,2 -4,5 -0,7 -0,1 0,2 2,6 16 8 26 14 SW 51 0 0,0
17.01.2018 06:00:00 -4,3 -4,6 -0,6 -0,1 0,2 2,6 14 8 30 16 WSW 16 0 0,0
17.01.2018 05:00:00 -4,3 -4,6 -0,6 -0,1 0,2 2,6 14 8 33 18 W 49 0 0,0
17.01.2018 04:00:00 -4,0 -4,3 -0,5 -0,1 0,2 2,6 16 9 34 18 W 36 0 0,0
17.01.2018 03:00:00 -3,3 -3,4 -0,5 -0,1 0,2 2,6 22 12 41 22 W 30 0 0,0
17.01.2018 02:00:00 -3,2 -3,3 -0,5 -0,1 0,2 2,6 19 10 39 21 W 33 0 0,0
17.01.2018 01:00:00 -3,5 -3,6 -0,5 -0,1 0,2 2,6 18 10 36 20 W 30 0 0,0
17.01.2018 00:00:00 -3,4 -3,5 -0,5 -0,1 0,2 2,6 21 11 37 20 WSW 36 0 0,0
16.01.2018 23:00:00 -3,6 -3,8 -0,3 -0,1 0,2 2,6 21 11 40 22 W 50 0 0,0
16.01.2018 22:00:00 -3,4 -3,5 -0,3 -0,1 0,2 2,6 22 12 45 25 W 54 0 0,0
16.01.2018 21:00:00 -3,1 -3,2 -0,3 -0,1 0,2 2,6 22 12 48 26 W 42 0 0,0
16.01.2018 20:00:00 -2,9 -2,9 -0,3 -0,1 0,2 2,6 29 16 61 33 W 35 0 0,0
16.01.2018 19:00:00 -2,8 -2,8 -0,3 -0,1 0,2 2,6 29 16 61 33 WNW 36 0 0,0
16.01.2018 18:00:00 -2,2 -2,2 -0,3 -0,1 0,2 2,6 31 17 64 35 WNW 4,7 0 0,4
16.01.2018 17:00:00 -1,4 -1,4 -0,3 -0,1 0,2 2,6 34 18 70 38 W 0,4 0 3,7
16.01.2018 16:00:00 -0,8 -0,8 -0,3 -0,1 0,2 2,6 29 15 38 20 SSW 4,7 0 0,0
16.01.2018 15:00:00 -0,7 -0,7 -0,4 -0,1 0,2 2,6 29 15 40 22 SSW 18 0 0,1
16.01.2018 14:00:00 -1,7 -1,7 -0,5 -0,2 0,2 2,6 22 12 32 17 S 0,7 6 0,0
16.01.2018 13:00:00 -0,9 -0,9 -0,8 -0,2 0,2 2,6 22 12 29 16 SSW 10 4 0,1
16.01.2018 12:00:00 -2,2 -2,2 -1,0 -0,2 0,2 2,6 13 7 36 19 SW 3,0 0 1,2
16.01.2018 11:00:00 -3,5 -3,6 -1,1 -0,2 0,2 2,6 22 12 32 17 S 0,1 0 0,0
16.01.2018 10:00:00 -3,8 -4,0 -1,3 -0,2 0,2 2,6 23 12 30 16 S 0,1 0 0,0
16.01.2018 09:00:00 -4,5 -4,7 -1,5 -0,2 0,2 2,6 26 14 41 22 S 0,1 0 0,0
16.01.2018 08:00:00 -4,9 -5,2 -1,6 -0,2 0,2 2,6 28 15 39 21 S 0,1 0 0,0
16.01.2018 07:00:00 -5,2 -5,5 -1,6 -0,2 0,2 2,6 29 16 46 25 S 0,1 0 0,1
16.01.2018 06:00:00 -5,5 -5,9 -1,6 -0,2 0,2 2,6 39 21 54 29 S 0,1 0 0,2
16.01.2018 05:00:00 -5,8 -6,2 -1,6 -0,2 0,2 2,6 37 20 59 32 S 0,2 0 0,7
16.01.2018 04:00:00 -6,1 -6,5 -1,6 -0,1 0,2 2,6 44 24 65 35 S 0,3 0 1,1
16.01.2018 03:00:00 -6,3 -6,7 -1,6 -0,1 0,2 2,6 44 24 59 32 S 0,2 0 1,0
16.01.2018 02:00:00 -6,4 -6,8 -1,6 -0,1 0,2 2,6 45 24 61 33 S 0,2 0 0,9
16.01.2018 01:00:00 -6,5 -7,0 -1,6 -0,1 0,2 2,6 42 23 58 31 S 0,4 0 0,5
16.01.2018 00:00:00 -6,4 -6,8 -1,6 0,0 0,2 2,6 44 24 58 32 S 0,1 0 0,2
15.01.2018 23:00:00 -6,4 -6,8 -1,5 0,0 0,2 2,6 44 24 64 34 S 0,2 0 0,0
15.01.2018 22:00:00 -6,4 -6,8 -1,5 0,0 0,2 2,6 41 22 67 36 S 0,2 0 0,1
15.01.2018 21:00:00 -6,5 -7,0 -1,5 0,0 0,2 2,6 47 26 64 35 SSE 0,2 0 0,0
15.01.2018 20:00:00 -6,4 -6,8 -1,4 0,0 0,2 2,6 46 25 63 34 SSE 0,1 0 0,0
15.01.2018 19:00:00 -6,0 -6,4 -1,3 0,0 0,3 2,6 40 22 57 31 SSE 0,2 0 0,1
15.01.2018 18:00:00 -5,8 -6,2 -1,3 0,0 0,3 2,6 41 22 57 31 SSE 0,1 0 0,0
15.01.2018 17:00:00 -5,6 -6,0 -1,3 0,0 0,3 2,6 36 20 55 30 S 0,4 0 0,0
15.01.2018 16:00:00 -5,4 -5,8 -1,2 0,0 0,3 2,6 37 20 51 28 SSE 1,1 0 0,0
15.01.2018 15:00:00 -5,2 -5,5 -1,1 0,0 0,3 2,6 35 19 50 27 S 1,3 0 0,0
15.01.2018 14:00:00 -4,9 -5,2 -1,1 0,0 0,3 2,6 35 19 55 30 S 3,0 0 0,0
15.01.2018 13:00:00 -5,2 -5,5 -1,3 0,0 0,3 2,6 35 19 58 32 S 0,2 0 0,0
15.01.2018 12:00:00 -5,4 -5,7 -1,4 0,0 0,3 2,6 37 20 56 30 S 0,3 0 0,0
15.01.2018 11:00:00 -5,6 -5,9 -1,4 0,0 0,3 2,6 36 19 53 29 S 0,3 0 0,0
15.01.2018 10:00:00 -5,5 -5,8 -1,5 0,0 0,3 2,6 35 19 55 30 S 1,0 0 0,0
15.01.2018 09:00:00 -5,5 -5,8 -1,5 0,0 0,3 2,6 38 21 53 28 S 0,2 0 0,1
15.01.2018 08:00:00 -5,6 -6,0 -1,5 0,0 0,3 2,6 39 21 55 30 S 0,3 0 0,0
15.01.2018 07:00:00 -5,5 -5,8 -1,5 0,0 0,3 2,6 38 21 55 30 S 0,2 0 0,0
15.01.2018 06:00:00 -5,5 -5,8 -1,5 0,1 0,3 2,6 39 21 54 29 SSE 0,3 0 0,0
15.01.2018 05:00:00 -5,4 -5,7 -1,6 0,1 0,3 2,6 35 19 45 25 SSE 0,4 0 0,0
15.01.2018 04:00:00 -5,4 -5,7 -1,6 0,1 0,3 2,6 22 12 37 20 S 0,5 0 0,0
15.01.2018 03:00:00 -5,4 -5,8 -1,5 0,1 0,3 2,6 29 15 41 22 S 7 0 0,0
15.01.2018 02:00:00 -5,3 -5,7 -1,5 0,1 0,3 2,6 24 13 45 24 S 8 0 0,0
15.01.2018 01:00:00 -5,1 -5,4 -1,5 0,1 0,3 2,6 26 14 42 23 SSE 1,6 0 0,0
15.01.2018 00:00:00 -5,1 -5,4 -1,5 0,1 0,3 2,6 27 15 49 26 SSE 1,0 0 0,0
14.01.2018 23:00:00 -5,1 -5,4 -1,5 0,1 0,3 2,6 29 15 46 25 SSE 0,6 0 0,0
14.01.2018 22:00:00 -5,0 -5,3 -1,5 0,1 0,3 2,6 29 15 49 27 SSE 5 0 0,0
14.01.2018 21:00:00 -4,9 -5,3 -1,4 0,1 0,3 2,6 30 16 46 25 SSE 10 0 0,0
14.01.2018 20:00:00 -4,9 -5,3 -1,4 0,1 0,3 2,6 28 15 46 25 SE 9 0 0,0
14.01.2018 19:00:00 -4,8 -5,2 -1,4 0,1 0,3 2,6 27 15 40 22 SE 10 0 0,0
14.01.2018 18:00:00 -4,8 -5,2 -1,4 0,1 0,3 2,6 22 12 33 18 SE 10 0 0,0
14.01.2018 17:00:00 -4,9 -5,3 -1,4 0,1 0,3 2,6 21 11 34 18 SE 12 0 0,0
14.01.2018 16:00:00 -4,9 -5,3 -1,3 0,1 0,3 2,6 22 12 34 19 SE 9 0 0,0
14.01.2018 15:00:00 -4,9 -5,3 -1,2 0,1 0,3 2,6 18 10 34 19 ESE 11 0 0,0
14.01.2018 14:00:00 -5,0 -5,3 -1,2 0,1 0,3 2,6 20 11 35 19 SE 5 0 0,0
14.01.2018 13:00:00 -5,2 -5,5 -1,2 0,1 0,3 2,6 23 12 34 18 SE 5 0 0,0
14.01.2018 12:00:00 -5,0 -5,3 -1,2 0,1 0,3 2,6 22 12 32 17 SE 6 0 0,0
14.01.2018 11:00:00 -5,2 -5,5 -1,4 0,1 0,3 2,6 22 12 32 17 SSE 2,9 0 0,0
14.01.2018 10:00:00 -5,4 -5,7 -1,6 0,1 0,3 2,6 18 10 33 18 SSE 4,2 0 0,0
14.01.2018 09:00:00 -5,5 -5,8 -1,6 0,1 0,3 2,6 24 13 36 20 SSE 3,8 0 0,0
14.01.2018 08:00:00 -5,4 -5,7 -1,6 0,1 0,3 2,6 16 9 31 17 SE 2,6 0 0,0
14.01.2018 07:00:00 -5,3 -5,6 -1,6 0,1 0,3 2,6 21 11 30 16 SE 4,6 0 0,0
14.01.2018 06:00:00 -5,2 -5,5 -1,6 0,1 0,3 2,6 17 9 29 15 SE 2,9 0 0,0
14.01.2018 05:00:00 -5,2 -5,4 -1,6 0,1 0,3 2,6 16 9 31 17 ESE 1,3 0 0,0
14.01.2018 04:00:00 -5,2 -5,4 -1,7 0,1 0,3 2,6 18 10 32 17 SE 1,6 0 0,0
14.01.2018 03:00:00 -5,4 -5,7 -1,8 0,1 0,4 2,6 18 10 37 20 SE 2,1 0 0,0
14.01.2018 02:00:00 -5,4 -5,7 -2,0 0,1 0,4 2,6 27 15 41 22 SSE 3,3 0 0,0
14.01.2018 01:00:00 -5,5 -5,9 -2,2 0,1 0,4 2,6 21 11 39 21 SSE 6 0 0,0
14.01.2018 00:00:00 -5,9 -6,5 -2,5 0,1 0,4 2,6 23 12 32 18 SSE 10 0 0,0
13.01.2018 23:00:00 -6,6 -7,3 -2,1 0,1 0,4 2,6 22 12 32 17 SE 11 0 0,0
13.01.2018 22:00:00 -6,5 -7,4 -1,8 0,1 0,4 2,6 19 10 35 19 SE 17 0 0,0
13.01.2018 21:00:00 -6,2 -7,1 -1,6 0,1 0,4 2,6 23 13 39 21 ESE 19 0 0,0
13.01.2018 20:00:00 -6,2 -7,0 -1,5 0,1 0,4 2,6 21 12 32 17 ESE 17 0 0,0
13.01.2018 19:00:00 -6,3 -7,2 -1,3 0,1 0,4 2,6 24 13 37 20 ESE 18 0 0,0
13.01.2018 18:00:00 -6,3 -7,1 -1,1 0,1 0,4 2,6 24 13 35 19 ESE 14 0 0,0
13.01.2018 17:00:00 -6,2 -6,8 -0,9 0,1 0,4 2,6 16 9 31 17 ESE 15 0 0,0
13.01.2018 16:00:00 -5,8 -6,4 -0,7 0,2 0,4 2,6 16 9 28 15 ESE 13 0 0,0
13.01.2018 15:00:00 -5,2 -5,5 -0,4 0,2 0,4 2,6 18 10 26 14 ESE 9 0 0,0
13.01.2018 14:00:00 -4,8 -4,8 -0,3 0,2 0,4 2,6 12 7 23 12 SE 0,1 0 0,0
13.01.2018 13:00:00 -4,5 -4,5 -0,2 0,2 0,4 2,6 10 6 26 14 SE 0,1 0 0,0
13.01.2018 12:00:00 -4,2 -4,2 -0,2 0,2 0,4 2,6 17 9 25 13 SSE 0,1 0 0,0
13.01.2018 11:00:00 -3,7 -3,7 -0,1 0,2 0,4 2,6 18 10 24 13 SSE 0,1 0 0,1
13.01.2018 10:00:00 -3,2 -3,2 -0,1 0,2 0,4 2,6 13 7 19 10 SSE 0,1 0 0,0
13.01.2018 09:00:00 -3,0 -3,0 -0,1 0,2 0,4 2,6 13 7 21 11 SSE 0,1 0 0,0
13.01.2018 08:00:00 -2,5 -2,5 -0,1 0,2 0,4 2,6 16 9 20 11 SE 0,1 0 0,0
13.01.2018 07:00:00 -1,9 -1,9 -0,1 0,2 0,4 2,6 10 5 13 7 SSE 0,1 0 0,0
13.01.2018 06:00:00 -1,8 -1,8 0,0 0,2 0,4 2,6 8 4 16 9 SSE 0,1 0 0,0
13.01.2018 05:00:00 -1,6 -1,6 0,0 0,2 0,4 2,6 8 4 13 7 SSE 0,1 0 0,0
13.01.2018 04:00:00 -1,3 -1,3 0,0 0,2 0,4 2,6 10 6 14 7 SSE 0,1 0 0,0
13.01.2018 03:00:00 -1,2 -1,2 0,0 0,2 0,4 2,6 9 5 11 6 SSE 0,1 0 0,0
13.01.2018 02:00:00 -1,0 -1,0 0,0 0,2 0,4 2,6 10 5 13 7 SSE 0,1 0 0,0
13.01.2018 01:00:00 -0,9 -0,9 0,0 0,2 0,4 2,6 10 6 14 7 SSE 0,1 0 0,0
13.01.2018 00:00:00 -0,9 -0,9 -0,1 0,2 0,4 2,6 10 6 14 7 SSE 0,1 0 0,0
12.01.2018 23:00:00 -0,8 -0,8 0,0 0,2 0,4 2,6 10 5 13 7 S 0,1 0 0,0
12.01.2018 22:00:00 -0,6 -0,6 0,0 0,2 0,4 2,6 2 1 8 4 N 0,1 0 0,0
12.01.2018 21:00:00 -0,5 -0,5 0,0 0,2 0,4 2,6 6 3 8 4 SW 0,1 0 0,0
12.01.2018 20:00:00 -0,6 -0,6 0,0 0,2 0,4 2,6 6 3 10 5 ENE 0,1 0 0,0
12.01.2018 19:00:00 -0,5 -0,5 0,0 0,2 0,4 2,6 6 3 16 8 ENE 0,1 0 0,0
12.01.2018 18:00:00 -0,4 -0,4 0,0 0,2 0,4 2,6 11 6 17 9 NE 0,1 0 0,0
12.01.2018 17:00:00 -0,2 -0,2 0,0 0,2 0,4 2,6 13 7 18 10 NE 0,1 0 0,0
12.01.2018 16:00:00 0,1 0,1 0,0 0,2 0,4 2,6 13 7 20 11 NNE 0,1 0 0,0
12.01.2018 15:00:00 0,1 0,1 0,0 0,2 0,4 2,6 13 7 22 12 NNE 0,1 0 0,0
12.01.2018 14:00:00 0,3 0,3 0,0 0,2 0,4 2,6 13 7 19 10 NE 0,1 0 0,0
12.01.2018 13:00:00 0,3 0,3 0,0 0,2 0,4 2,6 11 6 19 10 NE 0,1 0 0,0
12.01.2018 12:00:00 0,2 0,2 0,0 0,2 0,4 2,6 12 7 18 10 NE 0,1 0 0,0
12.01.2018 11:00:00 0,2 0,2 0,0 0,2 0,4 2,6 10 5 16 9 NNE 0,1 0 0,0
12.01.2018 10:00:00 0,0 0,0 0,0 0,2 0,4 2,6 8 4 11 6 NNE 0,1 0 0,1
12.01.2018 09:00:00 -0,1 -0,1 0,0 0,2 0,4 2,6 6 4 11 6 NE 0,1 0 0,2
12.01.2018 08:00:00 0,0 0,0 0,0 0,2 0,4 2,6 10 5 16 8 NNE 0,1 0 0,1
12.01.2018 07:00:00 0,2 0,2 0,0 0,2 0,4 2,6 8 5 16 9 N 0,1 0 0,0
12.01.2018 06:00:00 0,2 0,2 -0,1 0,2 0,4 2,6 10 6 17 9 N 0,1 0 0,0

tt = temperature
td = dewpoint
tt 5cm = temperature 5cm
tt -5cm = temperature -5cm
tt -20cm = temperature -20cm
tt -100cm = temperature -100cm
ff = wind speed
fx = gusts
dd = wind direction
vv = visibility
sd = sunshine duration
rr = precipitation

Next stations